Time;durP1;ratioP1;P1;durP2;ratioP2;P2;SDS_P1;SDS_P2;PMS_P1;PMS_P2;Temp;Humidity;BMP_temperature;BMP_pressure;BME280_temperature;BME280_humidity;BME280_pressure;Samples;Min_cycle;Max_cycle;Signal;HPM_P1;HPM_P2
2023/10/09 00:00:50;;;;;;;1999.90;999.90;;;12.80;93.00;;;;;;5056639;28;20037;-78
2023/10/09 00:03:23;;;;;;;1999.90;999.90;;;13.00;93.30;;;;;;5048765;28;20398;-80
2023/10/09 00:05:53;;;;;;;1999.90;999.90;;;13.00;93.00;;;;;;5050540;28;20048;-78
2023/10/09 00:08:22;;;;;;;1999.90;999.90;;;13.00;93.00;;;;;;5051983;28;20033;-78
2023/10/09 00:10:54;;;;;;;1999.90;999.90;;;12.90;92.90;;;;;;5048846;28;20714;-79
2023/10/09 00:13:30;;;;;;;1999.90;999.90;;;12.90;93.20;;;;;;5056064;28;20048;-77
2023/10/09 00:16:00;;;;;;;1999.90;999.90;;;12.90;93.10;;;;;;5047461;28;20528;-75
2023/10/09 00:18:29;;;;;;;1999.90;999.90;;;12.90;93.10;;;;;;5046479;28;20060;-79
2023/10/09 00:21:00;;;;;;;1999.90;999.90;;;12.90;93.30;;;;;;5036435;28;20499;-78
2023/10/09 00:23:27;;;;;;;1999.90;999.90;;;13.00;93.30;;;;;;5052170;28;20043;-79
2023/10/09 00:26:09;;;;;;;1999.90;999.90;;;13.00;93.30;;;;;;5054099;28;20033;-75
2023/10/09 00:28:41;;;;;;;1999.90;999.90;;;13.00;93.00;;;;;;5048356;28;20112;-78
2023/10/09 00:31:07;;;;;;;1999.90;999.90;;;12.80;93.10;;;;;;5035735;28;20056;-78
2023/10/09 00:33:34;;;;;;;1999.90;999.90;;;12.90;93.30;;;;;;5053843;28;20048;-77
2023/10/09 00:36:10;;;;;;;1999.90;999.90;;;13.00;93.10;;;;;;5055685;28;20028;-77
2023/10/09 00:38:46;;;;;;;1999.90;999.90;;;12.90;93.30;;;;;;5053992;28;20033;-78
2023/10/09 00:41:19;;;;;;;1999.90;999.90;;;12.80;93.40;;;;;;5064461;28;20033;-76
2023/10/09 00:43:45;;;;;;;1999.90;999.90;;;12.80;93.70;;;;;;5045864;28;20037;-76
2023/10/09 00:48:42;;;;;;;1999.90;999.90;;;12.80;93.70;;;;;;5046538;28;20041;-77
2023/10/09 00:51:18;;;;;;;1999.90;999.90;;;12.80;93.60;;;;;;5045423;28;20116;-78
2023/10/09 00:53:50;;;;;;;1999.90;999.90;;;12.70;93.80;;;;;;5050368;28;20484;-78
2023/10/09 00:56:37;;;;;;;1999.90;999.90;;;12.80;93.70;;;;;;5048897;28;20021;-80
2023/10/09 00:59:08;;;;;;;1999.90;999.90;;;12.90;93.60;;;;;;5053028;28;20029;-76
2023/10/09 01:01:35;;;;;;;1999.90;999.90;;;12.80;93.40;;;;;;5043814;28;20017;-80
2023/10/09 01:04:14;;;;;;;1999.90;999.90;;;12.90;93.50;;;;;;5063090;28;20029;-80
2023/10/09 01:06:44;;;;;;;1999.90;999.90;;;12.90;93.50;;;;;;5051408;28;20491;-76
2023/10/09 01:09:14;;;;;;;1999.90;999.90;;;12.80;93.40;;;;;;5053838;28;20740;-78
2023/10/09 01:14:24;;;;;;;1999.90;999.90;;;12.70;93.40;;;;;;5052498;28;20082;-78
2023/10/09 01:16:53;;;;;;;1999.90;999.90;;;12.70;93.50;;;;;;5033304;28;20032;-77
2023/10/09 01:19:23;;;;;;;1999.90;999.90;;;12.80;93.60;;;;;;5045821;28;20390;-77
2023/10/09 01:21:52;;;;;;;1999.90;999.90;;;12.70;93.50;;;;;;5052754;28;20150;-78
2023/10/09 01:24:19;;;;;;;1999.90;999.90;;;12.70;93.70;;;;;;5055662;28;20037;-77
2023/10/09 01:26:46;;;;;;;1999.90;999.90;;;12.60;93.70;;;;;;5047786;28;20094;-79
2023/10/09 01:29:15;;;;;;;1999.90;999.90;;;12.70;93.80;;;;;;5030676;28;20235;-80
2023/10/09 01:32:00;;;;;;;1999.90;999.90;;;12.80;93.70;;;;;;5046111;28;20093;-78
2023/10/09 01:34:49;;;;;;;1999.90;999.90;;;12.70;93.60;;;;;;5053283;28;20405;-76
2023/10/09 01:37:22;;;;;;;1999.90;999.90;;;12.70;93.70;;;;;;5049337;28;20028;-78
2023/10/09 01:39:50;;;;;;;1999.90;999.90;;;12.80;93.50;;;;;;5050480;28;20024;-76
2023/10/09 01:42:24;;;;;;;1999.90;999.90;;;12.60;93.50;;;;;;5050030;28;20033;-78
2023/10/09 01:44:50;;;;;;;1999.90;999.90;;;12.60;93.60;;;;;;5053448;28;20033;-79
2023/10/09 01:47:18;;;;;;;1999.90;999.90;;;12.50;94.20;;;;;;5049813;28;20029;-78
2023/10/09 01:49:48;;;;;;;1999.90;999.90;;;12.70;93.90;;;;;;5047610;28;20550;-75
2023/10/09 01:52:18;;;;;;;1999.90;999.90;;;12.60;93.50;;;;;;5046413;28;20036;-79
2023/10/09 01:54:50;;;;;;;1999.90;999.90;;;12.60;93.60;;;;;;5054642;28;20035;-77
2023/10/09 01:57:33;;;;;;;1999.90;999.90;;;12.60;93.60;;;;;;5049990;28;20033;-79
2023/10/09 01:59:59;;;;;;;1999.90;999.90;;;12.50;93.50;;;;;;5045188;28;20572;-75
2023/10/09 02:05:22;;;;;;;1999.90;999.90;;;12.50;93.50;;;;;;5050239;28;20064;-79
2023/10/09 02:07:54;;;;;;;1999.90;999.90;;;12.50;93.50;;;;;;5048273;28;20052;-78
2023/10/09 02:12:57;;;;;;;1999.90;999.90;;;12.60;93.20;;;;;;5052353;28;20116;-78
2023/10/09 02:23:30;;;;;;;1999.90;999.90;;;12.40;92.90;;;;;;5051676;28;20053;-78
2023/10/09 02:26:05;;;;;;;1999.90;999.90;;;12.40;93.00;;;;;;5054403;28;20033;-78
2023/10/09 02:28:33;;;;;;;1999.90;999.90;;;12.40;93.00;;;;;;5049593;28;20037;-75
2023/10/09 02:31:21;;;;;;;1999.90;999.90;;;12.40;93.00;;;;;;5037812;28;20079;-76
2023/10/09 02:33:50;;;;;;;1999.90;999.90;;;12.50;92.90;;;;;;5053089;28;20049;-76
2023/10/09 02:36:16;;;;;;;1999.90;999.90;;;12.50;92.70;;;;;;5044030;28;20128;-78
2023/10/09 02:38:43;;;;;;;1999.90;999.90;;;12.50;92.90;;;;;;5049439;28;20539;-78
2023/10/09 02:43:44;;;;;;;1999.90;999.90;;;12.50;92.60;;;;;;5054080;28;20037;-77
2023/10/09 02:46:17;;;;;;;1999.90;999.90;;;12.50;92.70;;;;;;5052885;28;20036;-76
2023/10/09 02:48:53;;;;;;;1999.90;999.90;;;12.60;92.70;;;;;;5051200;28;20547;-77
2023/10/09 02:53:57;;;;;;;1999.90;999.90;;;12.60;92.50;;;;;;5049447;28;20383;-78
2023/10/09 02:56:42;;;;;;;1999.90;999.90;;;12.50;92.50;;;;;;5048395;28;20021;-78
2023/10/09 02:59:09;;;;;;;1999.90;999.90;;;12.50;92.60;;;;;;5034711;28;20055;-78
2023/10/09 03:01:37;;;;;;;1999.90;999.90;;;12.60;92.40;;;;;;5048158;28;20128;-77
2023/10/09 03:04:06;;;;;;;1999.90;999.90;;;12.60;92.30;;;;;;5046442;28;20021;-76
2023/10/09 03:06:35;;;;;;;1999.90;999.90;;;12.70;92.10;;;;;;5050039;28;20079;-77
2023/10/09 03:09:16;;;;;;;1999.90;999.90;;;12.60;92.10;;;;;;5048573;28;20017;-76
2023/10/09 03:11:46;;;;;;;;;;;12.70;92.10;;;;;;5045345;28;20437;-79
2023/10/09 03:14:13;;;;;;;1999.90;999.90;;;12.70;92.10;;;;;;5042091;28;19955;-77
2023/10/09 03:16:38;;;;;;;1999.90;999.90;;;12.80;91.90;;;;;;5047055;28;20057;-76
2023/10/09 03:19:04;;;;;;;1999.90;999.90;;;12.80;92.00;;;;;;5044210;28;20739;-78
2023/10/09 03:21:30;;;;;;;1999.90;999.90;;;12.90;91.50;;;;;;5045388;28;20063;-77
2023/10/09 03:23:56;;;;;;;1999.90;999.90;;;12.90;91.40;;;;;;5049098;28;20112;-79
2023/10/09 03:26:25;;;;;;;1999.90;999.90;;;12.90;91.60;;;;;;5046672;28;20059;-77
2023/10/09 03:28:54;;;;;;;1999.90;999.90;;;12.90;91.50;;;;;;5046939;28;20037;-76
2023/10/09 03:31:22;;;;;;;1999.90;999.90;;;12.90;91.50;;;;;;5054918;28;20109;-80
2023/10/09 03:33:48;;;;;;;1999.90;999.90;;;13.00;91.30;;;;;;5046967;28;20522;-78
2023/10/09 03:36:16;;;;;;;1999.90;999.90;;;13.00;91.20;;;;;;5049135;28;20033;-77
2023/10/09 03:38:42;;;;;;;1999.90;999.90;;;13.10;90.90;;;;;;5049829;28;20029;-78
2023/10/09 03:41:12;;;;;;;1999.90;999.90;;;13.10;90.60;;;;;;5028999;28;20040;-78
2023/10/09 03:43:41;;;;;;;1999.90;999.90;;;13.10;90.60;;;;;;5053945;28;20033;-77
2023/10/09 03:48:48;;;;;;;1999.90;999.90;;;13.20;90.40;;;;;;5054023;28;20178;-79
2023/10/09 03:51:21;;;;;;;1999.90;999.90;;;13.20;90.30;;;;;;5051690;28;20049;-78
2023/10/09 03:53:54;;;;;;;1999.90;999.90;;;13.20;90.30;;;;;;5038306;28;20067;-76
2023/10/09 03:56:21;;;;;;;1999.90;999.90;;;13.30;90.10;;;;;;5048618;28;20028;-77
2023/10/09 03:58:49;;;;;;;1999.90;999.90;;;13.20;90.00;;;;;;5050651;28;20143;-77
2023/10/09 04:01:37;;;;;;;1999.90;999.90;;;13.20;90.10;;;;;;5052708;28;20116;-76
2023/10/09 04:04:06;;;;;;;1999.90;999.90;;;13.30;89.80;;;;;;5052035;28;20108;-79
2023/10/09 04:06:33;;;;;;;1999.90;999.90;;;13.30;89.60;;;;;;5056861;28;20036;-77
2023/10/09 04:14:48;;;;;;;1999.90;999.90;;;13.20;90.00;;;;;;5051796;28;20027;-79
2023/10/09 04:17:35;;;;;;;1999.90;999.90;;;13.20;90.00;;;;;;5055392;28;20035;-76
2023/10/09 04:22:59;;;;;;;1999.90;999.90;;;13.20;89.90;;;;;;5055350;28;20033;-80
2023/10/09 04:25:25;;;;;;;1999.90;999.90;;;13.20;89.80;;;;;;5054063;28;20033;-75
2023/10/09 04:30:43;;;;;;;1999.90;999.90;;;13.20;89.60;;;;;;5055413;28;20101;-76
2023/10/09 04:38:59;;;;;;;1999.90;999.90;;;13.10;90.10;;;;;;5046430;28;20048;-77
2023/10/09 04:41:27;;;;;;;1999.90;999.90;;;13.10;90.10;;;;;;5049735;28;20450;-78
2023/10/09 04:49:27;;;;;;;1999.90;999.90;;;13.10;90.20;;;;;;5049386;28;20510;-76
2023/10/09 04:52:06;;;;;;;1999.90;999.90;;;13.00;90.30;;;;;;5028333;28;20068;-78
2023/10/09 04:55:02;;;;;;;1999.90;999.90;;;13.10;90.20;;;;;;5049370;28;20544;-78
2023/10/09 04:57:27;;;;;;;1999.90;999.90;;;13.00;90.30;;;;;;5045639;28;20562;-76
2023/10/09 04:59:54;;;;;;;1999.90;999.90;;;13.00;90.40;;;;;;5050817;28;20021;-77
2023/10/09 05:02:22;;;;;;;1999.90;999.90;;;13.00;90.30;;;;;;5047114;28;20067;-77
2023/10/09 05:05:01;;;;;;;1999.90;999.90;;;13.00;90.10;;;;;;5047920;28;20056;-79
2023/10/09 05:10:16;;;;;;;1999.90;999.90;;;13.00;90.30;;;;;;5051329;28;20124;-79
2023/10/09 05:12:56;;;;;;;1999.90;999.90;;;12.90;90.40;;;;;;5050726;28;20056;-80
2023/10/09 05:15:29;;;;;;;1999.90;999.90;;;12.90;90.60;;;;;;5046134;28;20037;-76
2023/10/09 05:18:09;;;;;;;1999.90;999.90;;;12.90;90.60;;;;;;5056226;28;20021;-76
2023/10/09 05:23:25;;;;;;;1999.90;999.90;;;12.80;90.70;;;;;;5046564;28;20048;-81
2023/10/09 05:25:58;;;;;;;1999.90;999.90;;;12.70;90.90;;;;;;5047733;28;20037;-76
2023/10/09 05:28:31;;;;;;;1999.90;999.90;;;12.70;90.80;;;;;;5047418;28;20691;-82
2023/10/09 05:31:09;;;;;;;1999.90;999.90;;;12.70;91.00;;;;;;5048208;28;20068;-82
2023/10/09 05:33:37;;;;;;;1999.90;999.90;;;12.70;91.00;;;;;;5045762;28;20419;-81
2023/10/09 05:38:58;;;;;;;1999.90;999.90;;;12.70;91.30;;;;;;5041868;28;20036;-79
2023/10/09 05:41:47;;;;;;;1999.90;999.90;;;12.70;91.50;;;;;;5050245;28;20567;-76
2023/10/09 05:47:31;;;;;;;1999.90;999.90;;;12.70;91.90;;;;;;5054949;28;20047;-80
2023/10/09 06:08:24;;;;;;;1999.90;999.90;;;12.80;92.30;;;;;;5053596;28;20533;-80
2023/10/09 06:11:05;;;;;;;1999.90;999.90;;;12.90;92.40;;;;;;5052759;28;20060;-83
2023/10/09 06:13:45;;;;;;;1999.90;999.90;;;12.90;92.30;;;;;;5045740;28;20116;-82
2023/10/09 06:16:29;;;;;;;1999.90;999.90;;;13.00;92.20;;;;;;5047659;28;20021;-83
2023/10/09 06:19:07;;;;;;;1999.90;999.90;;;13.00;92.10;;;;;;5049611;28;20033;-80
2023/10/09 06:24:33;;;;;;;1999.90;999.90;;;13.10;92.00;;;;;;5046925;28;20044;-78
2023/10/09 06:29:35;;;;;;;1999.90;999.90;;;13.20;91.90;;;;;;5047292;28;20024;-79
2023/10/09 06:35:15;;;;;;;1999.90;999.90;;;13.30;91.80;;;;;;5052678;28;20624;-79
2023/10/09 06:48:57;;;;;;;1999.90;999.90;;;13.60;91.40;;;;;;5039719;28;20079;-81
2023/10/09 06:57:12;;;;;;;1999.90;999.90;;;14.00;90.70;;;;;;5049095;28;20057;-81
2023/10/09 06:59:20;;;;;;;1999.90;999.90;;;14.00;90.60;;;;;;5049850;28;20395;-84
2023/10/09 07:01:51;;;;;;;1999.90;999.90;;;14.10;90.50;;;;;;5044786;28;20037;-80
2023/10/09 07:04:45;;;;;;;1999.90;999.90;;;14.10;90.20;;;;;;5052972;28;20024;-80
2023/10/09 07:07:20;;;;;;;1999.90;999.90;;;14.20;90.20;;;;;;5049509;28;20049;-83
2023/10/09 07:12:42;;;;;;;1999.90;999.90;;;14.30;89.50;;;;;;5048978;28;20064;-83
2023/10/09 07:22:53;;;;;;;1999.90;999.90;;;14.50;88.40;;;;;;5052068;28;20031;-81
2023/10/09 07:25:42;;;;;;;1999.90;999.90;;;14.60;88.10;;;;;;5051594;28;20095;-83
2023/10/09 07:28:36;;;;;;;1999.90;999.90;;;14.70;87.50;;;;;;5055157;28;20437;-84
2023/10/09 07:31:03;;;;;;;1999.90;999.90;;;14.70;87.10;;;;;;5053085;28;20033;-81
2023/10/09 07:33:51;;;;;;;1999.90;999.90;;;14.80;86.40;;;;;;5049153;28;20411;-82
2023/10/09 07:36:29;;;;;;;1999.90;999.90;;;14.90;86.00;;;;;;5052572;28;20032;-83
2023/10/09 07:38:55;;;;;;;1999.90;999.90;;;15.00;86.10;;;;;;5053417;28;20123;-80
2023/10/09 07:43:47;;;;;;;1999.90;999.90;;;14.90;84.60;;;;;;5055117;28;20120;-82
2023/10/09 07:46:30;;;;;;;1999.90;999.90;;;15.10;84.40;;;;;;5053306;28;20041;-80
2023/10/09 07:49:08;;;;;;;1999.90;999.90;;;15.30;84.50;;;;;;5050309;28;20037;-80
2023/10/09 07:51:38;;;;;;;1999.90;999.90;;;15.40;82.90;;;;;;5050426;28;20040;-82
2023/10/09 07:54:14;;;;;;;1999.90;999.90;;;15.50;83.30;;;;;;5054922;28;20609;-80
2023/10/09 07:56:41;;;;;;;1999.90;999.90;;;15.50;83.20;;;;;;5045165;28;20029;-85
2023/10/09 07:59:12;;;;;;;1999.90;999.90;;;15.50;82.40;;;;;;5054026;28;20025;-81
2023/10/09 08:01:39;;;;;;;1999.90;999.90;;;15.50;82.10;;;;;;5042536;28;20029;-82
2023/10/09 08:04:15;;;;;;;1999.90;999.90;;;15.60;81.80;;;;;;5054678;28;20031;-82
2023/10/09 08:06:42;;;;;;;1999.90;999.90;;;15.60;82.30;;;;;;5049424;28;20060;-82
2023/10/09 08:12:13;;;;;;;1999.90;999.90;;;15.90;81.90;;;;;;5047882;28;20041;-83
2023/10/09 08:17:16;;;;;;;;;;;;;;;;;;;;;
2023/10/09 08:19:58;;;;;;;1999.90;999.90;;;16.20;81.60;;;;;;5051570;28;20021;-85
2023/10/09 08:24:58;;;;;;;1999.90;999.90;;;16.30;80.40;;;;;;5047243;28;20506;-81
2023/10/09 08:27:46;;;;;;;1999.90;999.90;;;16.30;79.90;;;;;;5051958;28;20032;-79
2023/10/09 08:33:01;;;;;;;1999.90;999.90;;;16.30;79.20;;;;;;5054288;28;20025;-79
2023/10/09 08:35:32;;;;;;;1999.90;999.90;;;16.40;80.20;;;;;;5048071;28;20522;-80
2023/10/09 08:38:08;;;;;;;1999.90;999.90;;;16.60;78.60;;;;;;5056538;28;20029;-79
2023/10/09 08:40:39;;;;;;;1999.90;999.90;;;16.60;78.00;;;;;;5052693;28;20029;-83
2023/10/09 08:43:10;;;;;;;1999.90;999.90;;;16.70;78.40;;;;;;5048755;28;20025;-82
2023/10/09 08:46:02;;;;;;;1999.90;999.90;;;16.90;78.70;;;;;;5051703;28;20397;-82
2023/10/09 08:48:29;;;;;;;1999.90;999.90;;;17.00;77.30;;;;;;5045350;28;20463;-85
2023/10/09 08:50:56;;;;;;;1999.90;999.90;;;16.90;77.10;;;;;;5055681;28;20078;-82
2023/10/09 08:53:27;;;;;;;1999.90;999.90;;;17.00;77.80;;;;;;5055167;28;20036;-83
2023/10/09 08:55:53;;;;;;;1999.90;999.90;;;16.90;77.00;;;;;;5030262;28;20039;-82
2023/10/09 08:58:26;;;;;;;1999.90;999.90;;;17.00;77.20;;;;;;5052235;28;20120;-82
2023/10/09 09:00:55;;;;;;;1999.90;999.90;;;17.10;77.20;;;;;;5034604;28;20124;-85
2023/10/09 09:03:25;;;;;;;1999.90;999.90;;;17.10;76.80;;;;;;5055133;28;20387;-83
2023/10/09 09:06:01;;;;;;;1999.90;999.90;;;17.20;76.60;;;;;;5056550;28;20074;-82
2023/10/09 09:08:29;;;;;;;1999.90;999.90;;;17.20;76.30;;;;;;5045537;28;20063;-82
2023/10/09 09:10:59;;;;;;;1999.90;999.90;;;17.20;77.50;;;;;;5051880;28;20025;-83
2023/10/09 09:13:31;;;;;;;1999.90;999.90;;;17.30;75.70;;;;;;5044906;28;20037;-82
2023/10/09 09:15:58;;;;;;;1999.90;999.90;;;17.30;77.00;;;;;;5054526;28;20074;-82
2023/10/09 09:18:31;;;;;;;1999.90;999.90;;;17.50;74.30;;;;;;5045828;28;20036;-81
2023/10/09 09:20:58;;;;;;;1999.90;999.90;;;17.60;73.60;;;;;;5041881;28;20036;-82
2023/10/09 09:23:23;;;;;;;1999.90;999.90;;;17.90;73.80;;;;;;5047120;28;21926;-82
2023/10/09 09:25:58;;;;;;;1999.90;999.90;;;18.10;74.00;;;;;;5042794;28;20079;-84
2023/10/09 09:28:32;;;;;;;1999.90;999.90;;;18.30;72.70;;;;;;5045132;28;20040;-84
2023/10/09 09:31:13;;;;;;;1999.90;999.90;;;18.40;72.70;;;;;;5051579;28;20048;-84
2023/10/09 09:33:43;;;;;;;1999.90;999.90;;;18.50;72.60;;;;;;5044302;28;20137;-82
2023/10/09 09:36:11;;;;;;;;;;;18.40;71.50;;;;;;5046033;28;20037;-83
2023/10/09 09:38:50;;;;;;;1999.90;999.90;;;18.40;71.30;;;;;;5052215;28;19924;-78
2023/10/09 09:41:34;;;;;;;1999.90;999.90;;;18.50;71.60;;;;;;5049034;28;20020;-79
2023/10/09 09:44:05;;;;;;;1999.90;999.90;;;18.60;71.20;;;;;;5046670;28;20457;-79
2023/10/09 09:46:34;;;;;;;1999.90;999.90;;;18.70;72.60;;;;;;5049013;28;20051;-79
2023/10/09 09:49:16;;;;;;;1999.90;999.90;;;18.80;71.40;;;;;;5047903;28;20032;-80
2023/10/09 09:51:46;;;;;;;1999.90;999.90;;;18.60;69.70;;;;;;5056107;28;20020;-79
2023/10/09 09:54:15;;;;;;;1999.90;999.90;;;18.60;70.50;;;;;;5041773;28;20029;-80
2023/10/09 09:56:50;;;;;;;1999.90;999.90;;;18.70;70.10;;;;;;5046791;28;20040;-79
2023/10/09 09:59:36;;;;;;;1999.90;999.90;;;18.80;70.00;;;;;;5046923;28;20112;-77
2023/10/09 10:02:08;;;;;;;1999.90;999.90;;;18.80;69.10;;;;;;5045965;28;20048;-79
2023/10/09 10:04:39;;;;;;;1999.90;999.90;;;18.90;68.30;;;;;;5051045;28;20025;-79
2023/10/09 10:07:09;;;;;;;1999.90;999.90;;;19.00;70.80;;;;;;5044390;28;20043;-79
2023/10/09 10:09:45;;;;;;;1999.90;999.90;;;19.10;69.60;;;;;;5046351;28;20039;-79
2023/10/09 10:12:14;;;;;;;1999.90;999.90;;;19.00;68.50;;;;;;5045938;28;20040;-80
2023/10/09 10:15:07;;;;;;;1999.90;999.90;;;19.10;69.80;;;;;;5050930;28;20039;-79
2023/10/09 10:17:59;;;;;;;1999.90;999.90;;;19.20;68.90;;;;;;5062133;28;20706;-77
2023/10/09 10:20:25;;;;;;;1999.90;999.90;;;19.40;68.50;;;;;;5047242;28;20790;-77
2023/10/09 10:23:25;;;;;;;1999.90;999.90;;;19.40;70.20;;;;;;5049761;28;20056;-77
2023/10/09 10:25:59;;;;;;;1999.90;999.90;;;19.60;67.90;;;;;;5052040;28;20535;-72
2023/10/09 10:28:38;;;;;;;1999.90;999.90;;;19.60;68.40;;;;;;5049070;28;20072;-74
2023/10/09 10:31:09;;;;;;;1999.90;999.90;;;19.80;68.20;;;;;;5053050;28;20090;-72
2023/10/09 10:33:56;;;;;;;;;;;20.00;67.10;;;;;;5052549;28;20041;-71
2023/10/09 10:36:26;;;;;;;1999.90;999.90;;;20.20;66.70;;;;;;5045117;28;19912;-71
2023/10/09 10:39:04;;;;;;;1999.90;999.90;;;20.00;66.20;;;;;;5047370;28;20037;-71
2023/10/09 10:41:35;;;;;;;1999.90;999.90;;;19.90;66.70;;;;;;5050924;28;20038;-74
2023/10/09 10:44:33;;;;;;;1999.90;999.90;;;20.20;67.30;;;;;;5045542;28;20029;-73
2023/10/09 10:46:52;;;;;;;1999.90;999.90;;;20.30;65.40;;;;;;5045182;28;20033;-72
2023/10/09 10:49:21;;;;;;;1999.90;999.90;;;20.30;66.70;;;;;;5046878;28;20049;-73
2023/10/09 10:51:49;;;;;;;1999.90;999.90;;;20.00;66.00;;;;;;5050563;28;20064;-71
2023/10/09 10:57:03;;;;;;;1999.90;999.90;;;20.20;66.10;;;;;;5050207;28;20083;-73
2023/10/09 10:59:39;;;;;;;1999.90;999.90;;;20.20;66.00;;;;;;5062737;28;20364;-72
2023/10/09 11:04:44;;;;;;;1999.90;999.90;;;20.20;65.10;;;;;;5047660;28;20044;-73
2023/10/09 11:09:57;;;;;;;1999.90;999.90;;;20.50;64.90;;;;;;5052024;28;20112;-77
2023/10/09 11:12:23;;;;;;;1999.90;999.90;;;20.40;64.40;;;;;;5051725;28;20029;-77
2023/10/09 11:17:38;;;;;;;1999.90;999.90;;;20.50;64.40;;;;;;5051366;28;20043;-77
2023/10/09 11:26:20;;;;;;;1999.90;999.90;;;20.50;64.70;;;;;;5058678;28;20483;-75
2023/10/09 11:28:48;;;;;;;1999.90;999.90;;;20.60;64.90;;;;;;5048056;28;20041;-76
2023/10/09 11:31:17;;;;;;;1999.90;999.90;;;20.70;64.40;;;;;;5045037;28;20040;-78
2023/10/09 11:33:52;;;;;;;1999.90;999.90;;;20.80;62.90;;;;;;5047901;28;20048;-78
2023/10/09 11:36:32;;;;;;;1999.90;999.90;;;20.90;64.20;;;;;;5052231;28;20033;-78
2023/10/09 11:39:15;;;;;;;1999.90;999.90;;;21.00;62.60;;;;;;5054290;28;20082;-78
2023/10/09 11:41:49;;;;;;;1999.90;999.90;;;21.20;63.10;;;;;;5050555;28;20112;-78
2023/10/09 11:44:19;;;;;;;1999.90;999.90;;;21.40;63.10;;;;;;5051231;28;20028;-78
2023/10/09 11:47:22;;;;;;;1999.90;999.90;;;21.40;63.60;;;;;;5050263;28;20104;-78
2023/10/09 11:52:47;;;;;;;1999.90;999.90;;;21.40;63.30;;;;;;5047410;28;20410;-78
2023/10/09 11:55:14;;;;;;;1999.90;999.90;;;21.00;62.40;;;;;;5044777;28;20545;-78
2023/10/09 11:57:41;;;;;;;1999.90;999.90;;;21.20;62.00;;;;;;5050057;28;20036;-78
2023/10/09 12:00:11;;;;;;;1999.90;999.90;;;21.30;63.40;;;;;;5055809;28;20560;-78
2023/10/09 12:02:43;;;;;;;1999.90;999.90;;;21.10;62.40;;;;;;5051994;28;20041;-78
2023/10/09 12:05:19;;;;;;;1999.90;999.90;;;21.00;62.60;;;;;;5056455;28;20115;-78
2023/10/09 12:07:54;;;;;;;1999.90;999.90;;;20.90;65.40;;;;;;5044843;28;20057;-78
2023/10/09 12:10:25;;;;;;;1999.90;999.90;;;20.80;63.10;;;;;;5049891;28;20395;-78
2023/10/09 12:12:57;;;;;;;1999.90;999.90;;;20.80;64.10;;;;;;5055158;28;20497;-77
2023/10/09 12:15:23;;;;;;;1999.90;999.90;;;20.70;64.40;;;;;;5054591;28;20028;-77
2023/10/09 12:17:53;;;;;;;1999.90;999.90;;;20.50;65.80;;;;;;5048099;28;20459;-77
2023/10/09 12:20:31;;;;;;;1999.90;999.90;;;20.70;66.50;;;;;;5052757;28;20037;-77
2023/10/09 12:22:59;;;;;;;1999.90;999.90;;;20.70;65.80;;;;;;5052827;28;20567;-77
2023/10/09 12:25:26;;;;;;;1999.90;999.90;;;20.80;66.30;;;;;;5053510;28;20052;-77
2023/10/09 12:27:57;;;;;;;1999.90;999.90;;;21.10;66.40;;;;;;5051874;28;20044;-78
2023/10/09 12:30:26;;;;;;;1999.90;999.90;;;21.30;64.80;;;;;;5064780;28;20047;-77
2023/10/09 12:32:57;;;;;;;1999.90;999.90;;;21.50;64.60;;;;;;5066740;28;20036;-76
2023/10/09 12:35:27;;;;;;;1999.90;999.90;;;21.80;61.40;;;;;;5066115;28;20048;-77
2023/10/09 12:37:54;;;;;;;1999.90;999.90;;;21.70;63.20;;;;;;5056745;28;20063;-80
2023/10/09 12:40:30;;;;;;;1999.90;999.90;;;21.70;63.40;;;;;;5055069;28;20026;-80
2023/10/09 12:42:58;;;;;;;1999.90;999.90;;;21.70;64.80;;;;;;5049163;28;20678;-80
2023/10/09 12:45:26;;;;;;;1999.90;999.90;;;21.60;65.00;;;;;;5050927;28;20044;-79
2023/10/09 12:48:03;;;;;;;1999.90;999.90;;;21.70;64.40;;;;;;5069837;28;20037;-80
2023/10/09 12:50:34;;;;;;;1999.90;999.90;;;21.50;63.70;;;;;;5051746;28;20772;-81
2023/10/09 12:53:06;;;;;;;1999.90;999.90;;;21.20;65.10;;;;;;5043664;28;20033;-80
2023/10/09 12:55:35;;;;;;;1999.90;999.90;;;21.10;65.90;;;;;;5043847;28;20583;-79
2023/10/09 12:58:06;;;;;;;1999.90;999.90;;;21.10;67.20;;;;;;5051026;28;20087;-79
2023/10/09 13:00:32;;;;;;;;;;;21.30;67.30;;;;;;5050752;28;20036;-79
2023/10/09 13:03:01;;;;;;;1999.90;999.90;;;21.00;66.80;;;;;;5054358;28;20023;-79
2023/10/09 13:05:27;;;;;;;1999.90;999.90;;;21.00;67.70;;;;;;5048099;28;20124;-79
2023/10/09 13:07:56;;;;;;;1999.90;999.90;;;20.90;65.50;;;;;;5050783;28;20040;-78
2023/10/09 13:10:23;;;;;;;1999.90;999.90;;;20.80;67.70;;;;;;5049776;28;20541;-79
2023/10/09 13:12:55;;;;;;;1999.90;999.90;;;20.80;66.40;;;;;;5032327;28;20578;-79
2023/10/09 13:15:21;;;;;;;1999.90;999.90;;;20.60;67.80;;;;;;5047391;28;20044;-79
2023/10/09 13:17:47;;;;;;;1999.90;999.90;;;20.50;69.10;;;;;;5041658;28;20096;-79
2023/10/09 13:20:13;;;;;;;1999.90;999.90;;;20.50;68.50;;;;;;5050723;28;20047;-79
2023/10/09 13:22:40;;;;;;;1999.90;999.90;;;20.20;69.50;;;;;;5035249;28;20479;-79
2023/10/09 13:25:15;;;;;;;1999.90;999.90;;;19.90;69.80;;;;;;5050657;28;20376;-78
2023/10/09 13:27:50;;;;;;;1999.90;999.90;;;20.00;70.30;;;;;;5046449;28;20036;-79
2023/10/09 13:30:23;;;;;;;1999.90;999.90;;;20.10;69.50;;;;;;5034999;28;20045;-76
2023/10/09 13:32:49;;;;;;;1999.90;999.90;;;20.10;69.40;;;;;;5052233;28;20025;-76
2023/10/09 13:35:18;;;;;;;1999.90;999.90;;;20.30;68.20;;;;;;5055260;28;20036;-73
2023/10/09 13:37:53;;;;;;;1999.90;999.90;;;20.50;69.30;;;;;;5045961;28;20098;-74
2023/10/09 13:40:26;;;;;;;1999.90;999.90;;;20.60;69.30;;;;;;5041170;28;20026;-73
2023/10/09 13:42:58;;;;;;;1999.90;999.90;;;20.40;67.80;;;;;;5046022;28;20036;-74
2023/10/09 13:45:28;;;;;;;1999.90;999.90;;;20.50;68.90;;;;;;5044714;28;20033;-74
2023/10/09 13:47:57;;;;;;;1999.90;999.90;;;20.20;68.70;;;;;;5047516;28;20029;-75
2023/10/09 13:50:32;;;;;;;1999.90;999.90;;;20.40;68.20;;;;;;5047793;28;20047;-75
2023/10/09 13:52:59;;;;;;;1999.90;999.90;;;20.10;68.40;;;;;;5045602;28;20427;-75
2023/10/09 13:55:31;;;;;;;1999.90;999.90;;;20.10;67.40;;;;;;5046556;28;20029;-75
2023/10/09 13:57:57;;;;;;;1999.90;999.90;;;20.00;68.70;;;;;;5051733;28;20028;-75
2023/10/09 14:00:33;;;;;;;1999.90;999.90;;;20.20;68.00;;;;;;5050577;28;20441;-75
2023/10/09 14:03:11;;;;;;;1999.90;999.90;;;20.10;67.60;;;;;;5046323;28;20542;-75
2023/10/09 14:05:44;;;;;;;1999.90;999.90;;;20.10;68.20;;;;;;5049356;28;20522;-75
2023/10/09 14:08:10;;;;;;;1999.90;999.90;;;20.10;68.40;;;;;;5049859;28;20028;-76
2023/10/09 14:10:38;;;;;;;1999.90;999.90;;;20.10;66.80;;;;;;5046953;28;20029;-76
2023/10/09 14:13:12;;;;;;;1999.90;999.90;;;20.00;67.20;;;;;;5049792;28;20033;-76
2023/10/09 14:15:41;;;;;;;1999.90;999.90;;;20.00;67.80;;;;;;5051783;28;20075;-75
2023/10/09 14:18:11;;;;;;;1999.90;999.90;;;20.00;66.70;;;;;;5043597;28;20120;-76
2023/10/09 14:20:37;;;;;;;1999.90;999.90;;;19.90;67.60;;;;;;5052022;28;20032;-76
2023/10/09 14:23:06;;;;;;;1999.90;999.90;;;20.00;67.10;;;;;;5048546;28;20097;-76
2023/10/09 14:25:39;;;;;;;1999.90;999.90;;;20.00;67.50;;;;;;5045727;28;20067;-76
2023/10/09 14:28:07;;;;;;;1999.90;999.90;;;20.00;67.00;;;;;;5047033;28;20071;-76
2023/10/09 14:30:43;;;;;;;1999.90;999.90;;;20.00;67.70;;;;;;5041496;28;20135;-75
2023/10/09 14:33:13;;;;;;;1999.90;999.90;;;19.90;66.40;;;;;;5048236;28;20065;-76
2023/10/09 14:35:43;;;;;;;1999.90;999.90;;;19.90;67.00;;;;;;5051236;28;20033;-76
2023/10/09 14:38:12;;;;;;;1999.90;999.90;;;19.90;67.80;;;;;;5053676;28;20307;-76
2023/10/09 14:40:45;;;;;;;1999.90;999.90;;;19.90;66.20;;;;;;5048197;28;20025;-76
2023/10/09 14:43:21;;;;;;;1999.90;999.90;;;19.80;66.50;;;;;;5044299;28;20029;-76
2023/10/09 14:45:53;;;;;;;1999.90;999.90;;;19.90;66.60;;;;;;5045109;28;20563;-77
2023/10/09 14:48:25;;;;;;;1999.90;999.90;;;19.90;66.80;;;;;;5041693;28;20059;-80
2023/10/09 14:51:04;;;;;;;1999.90;999.90;;;19.90;66.90;;;;;;5045597;28;20110;-78
2023/10/09 14:53:30;;;;;;;1999.90;999.90;;;19.70;67.40;;;;;;5048296;28;20110;-79